sensor_id;sensor_type;location;lat;lon;timestamp;P1;durP1;ratioP1;P2;durP2;ratioP2
7383;SDS011;3733;47.994;8.820;2023-07-02T00:01:03;2.67;;;2.47;;
7383;SDS011;3733;47.994;8.820;2023-07-02T00:03:29;2.37;;;1.90;;
7383;SDS011;3733;47.994;8.820;2023-07-02T00:05:54;2.30;;;2.10;;
7383;SDS011;3733;47.994;8.820;2023-07-02T00:08:21;3.60;;;1.93;;
7383;SDS011;3733;47.994;8.820;2023-07-02T00:10:47;1.93;;;1.80;;
7383;SDS011;3733;47.994;8.820;2023-07-02T00:13:13;3.30;;;2.07;;
7383;SDS011;3733;47.994;8.820;2023-07-02T00:15:39;3.10;;;2.10;;
7383;SDS011;3733;47.994;8.820;2023-07-02T00:18:05;2.77;;;2.10;;
7383;SDS011;3733;47.994;8.820;2023-07-02T00:20:31;2.60;;;1.87;;
7383;SDS011;3733;47.994;8.820;2023-07-02T00:23:00;2.20;;;2.00;;
7383;SDS011;3733;47.994;8.820;2023-07-02T00:25:25;2.40;;;2.20;;
7383;SDS011;3733;47.994;8.820;2023-07-02T00:27:51;2.20;;;2.00;;
7383;SDS011;3733;47.994;8.820;2023-07-02T00:30:17;2.87;;;2.03;;
7383;SDS011;3733;47.994;8.820;2023-07-02T00:32:42;5.17;;;2.27;;
7383;SDS011;3733;47.994;8.820;2023-07-02T00:35:08;2.07;;;1.87;;
7383;SDS011;3733;47.994;8.820;2023-07-02T00:37:34;2.27;;;2.07;;
7383;SDS011;3733;47.994;8.820;2023-07-02T00:39:59;2.73;;;2.20;;
7383;SDS011;3733;47.994;8.820;2023-07-02T00:42:25;4.37;;;2.30;;
7383;SDS011;3733;47.994;8.820;2023-07-02T00:44:54;2.20;;;2.00;;
7383;SDS011;3733;47.994;8.820;2023-07-02T00:47:22;3.83;;;2.00;;
7383;SDS011;3733;47.994;8.820;2023-07-02T00:49:48;3.10;;;2.30;;
7383;SDS011;3733;47.994;8.820;2023-07-02T00:52:14;2.50;;;2.30;;
7383;SDS011;3733;47.994;8.820;2023-07-02T00:54:40;2.27;;;2.07;;
7383;SDS011;3733;47.994;8.820;2023-07-02T00:57:06;2.80;;;2.60;;
7383;SDS011;3733;47.994;8.820;2023-07-02T00:59:32;2.90;;;2.60;;
7383;SDS011;3733;47.994;8.820;2023-07-02T01:02:03;2.07;;;1.90;;
7383;SDS011;3733;47.994;8.820;2023-07-02T01:04:30;2.20;;;2.00;;
7383;SDS011;3733;47.994;8.820;2023-07-02T01:06:56;2.23;;;2.10;;
7383;SDS011;3733;47.994;8.820;2023-07-02T01:09:23;2.10;;;1.90;;
7383;SDS011;3733;47.994;8.820;2023-07-02T01:11:53;2.40;;;2.20;;
7383;SDS011;3733;47.994;8.820;2023-07-02T01:14:25;2.67;;;2.10;;
7383;SDS011;3733;47.994;8.820;2023-07-02T01:16:54;3.43;;;2.43;;
7383;SDS011;3733;47.994;8.820;2023-07-02T01:19:21;3.30;;;2.30;;
7383;SDS011;3733;47.994;8.820;2023-07-02T01:22:06;3.83;;;2.37;;
7383;SDS011;3733;47.994;8.820;2023-07-02T01:24:32;2.40;;;2.20;;
7383;SDS011;3733;47.994;8.820;2023-07-02T01:26:58;3.50;;;2.00;;
7383;SDS011;3733;47.994;8.820;2023-07-02T01:29:26;2.60;;;2.40;;
7383;SDS011;3733;47.994;8.820;2023-07-02T01:31:54;2.20;;;2.00;;
7383;SDS011;3733;47.994;8.820;2023-07-02T01:34:20;2.80;;;2.10;;
7383;SDS011;3733;47.994;8.820;2023-07-02T01:36:45;5.83;;;2.47;;
7383;SDS011;3733;47.994;8.820;2023-07-02T01:39:11;2.43;;;2.17;;
7383;SDS011;3733;47.994;8.820;2023-07-02T01:41:41;4.80;;;2.20;;
7383;SDS011;3733;47.994;8.820;2023-07-02T01:44:10;3.13;;;2.80;;
7383;SDS011;3733;47.994;8.820;2023-07-02T01:46:36;3.17;;;2.87;;
7383;SDS011;3733;47.994;8.820;2023-07-02T01:49:02;2.53;;;2.33;;
7383;SDS011;3733;47.994;8.820;2023-07-02T01:51:27;3.47;;;2.37;;
7383;SDS011;3733;47.994;8.820;2023-07-02T01:53:53;2.57;;;2.33;;
7383;SDS011;3733;47.994;8.820;2023-07-02T01:56:19;2.70;;;2.50;;
7383;SDS011;3733;47.994;8.820;2023-07-02T01:58:44;2.57;;;2.37;;
7383;SDS011;3733;47.994;8.820;2023-07-02T02:01:10;5.20;;;3.27;;
7383;SDS011;3733;47.994;8.820;2023-07-02T02:03:35;4.20;;;2.80;;
7383;SDS011;3733;47.994;8.820;2023-07-02T02:06:01;2.90;;;2.67;;
7383;SDS011;3733;47.994;8.820;2023-07-02T02:08:26;2.60;;;2.40;;
7383;SDS011;3733;47.994;8.820;2023-07-02T02:10:52;2.47;;;2.27;;
7383;SDS011;3733;47.994;8.820;2023-07-02T02:13:18;4.00;;;2.50;;
7383;SDS011;3733;47.994;8.820;2023-07-02T02:15:43;3.23;;;2.67;;
7383;SDS011;3733;47.994;8.820;2023-07-02T02:18:09;2.93;;;2.63;;
7383;SDS011;3733;47.994;8.820;2023-07-02T02:20:34;4.23;;;2.40;;
7383;SDS011;3733;47.994;8.820;2023-07-02T02:23:00;2.33;;;2.13;;
7383;SDS011;3733;47.994;8.820;2023-07-02T02:25:25;6.30;;;2.40;;
7383;SDS011;3733;47.994;8.820;2023-07-02T02:27:51;2.70;;;2.50;;
7383;SDS011;3733;47.994;8.820;2023-07-02T02:30:17;2.80;;;2.53;;
7383;SDS011;3733;47.994;8.820;2023-07-02T02:32:42;2.63;;;2.30;;
7383;SDS011;3733;47.994;8.820;2023-07-02T02:35:08;2.47;;;2.27;;
7383;SDS011;3733;47.994;8.820;2023-07-02T02:37:34;2.67;;;2.47;;
7383;SDS011;3733;47.994;8.820;2023-07-02T02:40:02;2.73;;;2.53;;
7383;SDS011;3733;47.994;8.820;2023-07-02T02:42:28;2.93;;;2.40;;
7383;SDS011;3733;47.994;8.820;2023-07-02T02:44:54;2.70;;;2.40;;
7383;SDS011;3733;47.994;8.820;2023-07-02T02:47:19;2.93;;;2.47;;
7383;SDS011;3733;47.994;8.820;2023-07-02T02:49:45;3.77;;;2.20;;
7383;SDS011;3733;47.994;8.820;2023-07-02T02:52:10;4.87;;;2.93;;
7383;SDS011;3733;47.994;8.820;2023-07-02T02:54:36;3.00;;;2.60;;
7383;SDS011;3733;47.994;8.820;2023-07-02T02:57:01;2.50;;;2.30;;
7383;SDS011;3733;47.994;8.820;2023-07-02T02:59:27;4.40;;;2.33;;
7383;SDS011;3733;47.994;8.820;2023-07-02T03:01:53;2.60;;;2.40;;
7383;SDS011;3733;47.994;8.820;2023-07-02T03:04:18;2.60;;;2.40;;
7383;SDS011;3733;47.994;8.820;2023-07-02T03:06:48;2.60;;;2.23;;
7383;SDS011;3733;47.994;8.820;2023-07-02T03:09:14;2.57;;;2.37;;
7383;SDS011;3733;47.994;8.820;2023-07-02T03:11:40;3.33;;;2.80;;
7383;SDS011;3733;47.994;8.820;2023-07-02T03:14:05;3.00;;;2.70;;
7383;SDS011;3733;47.994;8.820;2023-07-02T03:16:31;9.93;;;2.27;;
7383;SDS011;3733;47.994;8.820;2023-07-02T03:18:58;3.03;;;2.50;;
7383;SDS011;3733;47.994;8.820;2023-07-02T03:21:24;4.10;;;2.73;;
7383;SDS011;3733;47.994;8.820;2023-07-02T03:23:49;2.80;;;2.47;;
7383;SDS011;3733;47.994;8.820;2023-07-02T03:26:15;3.70;;;3.07;;
7383;SDS011;3733;47.994;8.820;2023-07-02T03:28:41;3.80;;;3.00;;
7383;SDS011;3733;47.994;8.820;2023-07-02T03:31:06;5.00;;;2.90;;
7383;SDS011;3733;47.994;8.820;2023-07-02T03:33:32;3.10;;;2.63;;
7383;SDS011;3733;47.994;8.820;2023-07-02T03:35:58;2.73;;;2.50;;
7383;SDS011;3733;47.994;8.820;2023-07-02T03:38:23;2.80;;;2.60;;
7383;SDS011;3733;47.994;8.820;2023-07-02T03:40:49;3.27;;;2.97;;
7383;SDS011;3733;47.994;8.820;2023-07-02T03:43:15;3.60;;;3.10;;
7383;SDS011;3733;47.994;8.820;2023-07-02T03:45:40;3.00;;;2.70;;
7383;SDS011;3733;47.994;8.820;2023-07-02T03:48:06;4.33;;;3.10;;
7383;SDS011;3733;47.994;8.820;2023-07-02T03:50:31;3.70;;;3.27;;
7383;SDS011;3733;47.994;8.820;2023-07-02T03:52:57;3.50;;;3.10;;
7383;SDS011;3733;47.994;8.820;2023-07-02T03:55:23;3.73;;;3.30;;
7383;SDS011;3733;47.994;8.820;2023-07-02T03:57:48;3.57;;;3.27;;
7383;SDS011;3733;47.994;8.820;2023-07-02T04:00:14;3.23;;;2.90;;
7383;SDS011;3733;47.994;8.820;2023-07-02T04:02:40;3.17;;;2.87;;
7383;SDS011;3733;47.994;8.820;2023-07-02T04:05:06;5.80;;;4.77;;
7383;SDS011;3733;47.994;8.820;2023-07-02T04:07:31;3.70;;;3.17;;
7383;SDS011;3733;47.994;8.820;2023-07-02T04:09:57;6.27;;;3.10;;
7383;SDS011;3733;47.994;8.820;2023-07-02T04:12:23;7.90;;;3.23;;
7383;SDS011;3733;47.994;8.820;2023-07-02T04:14:48;4.83;;;3.63;;
7383;SDS011;3733;47.994;8.820;2023-07-02T04:17:14;5.47;;;3.97;;
7383;SDS011;3733;47.994;8.820;2023-07-02T04:19:39;4.10;;;3.70;;
7383;SDS011;3733;47.994;8.820;2023-07-02T04:22:05;7.40;;;4.23;;
7383;SDS011;3733;47.994;8.820;2023-07-02T04:24:31;5.07;;;3.33;;
7383;SDS011;3733;47.994;8.820;2023-07-02T04:26:56;4.63;;;3.80;;
7383;SDS011;3733;47.994;8.820;2023-07-02T04:29:22;5.53;;;4.07;;
7383;SDS011;3733;47.994;8.820;2023-07-02T04:31:47;5.73;;;4.13;;
7383;SDS011;3733;47.994;8.820;2023-07-02T04:34:13;5.13;;;3.93;;
7383;SDS011;3733;47.994;8.820;2023-07-02T04:36:39;4.70;;;3.60;;
7383;SDS011;3733;47.994;8.820;2023-07-02T04:39:04;3.73;;;3.43;;
7383;SDS011;3733;47.994;8.820;2023-07-02T04:41:30;6.67;;;3.70;;
7383;SDS011;3733;47.994;8.820;2023-07-02T04:43:57;11.63;;;3.83;;
7383;SDS011;3733;47.994;8.820;2023-07-02T04:46:23;4.07;;;3.67;;
7383;SDS011;3733;47.994;8.820;2023-07-02T04:48:48;4.30;;;3.70;;
7383;SDS011;3733;47.994;8.820;2023-07-02T04:51:14;4.20;;;3.80;;
7383;SDS011;3733;47.994;8.820;2023-07-02T04:53:40;4.83;;;3.33;;
7383;SDS011;3733;47.994;8.820;2023-07-02T04:56:05;6.70;;;4.37;;
7383;SDS011;3733;47.994;8.820;2023-07-02T04:58:31;5.10;;;4.13;;
7383;SDS011;3733;47.994;8.820;2023-07-02T05:00:56;4.60;;;3.83;;
7383;SDS011;3733;47.994;8.820;2023-07-02T05:03:22;7.40;;;4.00;;
7383;SDS011;3733;47.994;8.820;2023-07-02T05:05:48;5.90;;;4.00;;
7383;SDS011;3733;47.994;8.820;2023-07-02T05:08:14;6.87;;;4.57;;
7383;SDS011;3733;47.994;8.820;2023-07-02T05:10:39;5.77;;;4.53;;
7383;SDS011;3733;47.994;8.820;2023-07-02T05:13:05;5.40;;;4.30;;
7383;SDS011;3733;47.994;8.820;2023-07-02T05:15:30;4.40;;;3.93;;
7383;SDS011;3733;47.994;8.820;2023-07-02T05:17:56;6.63;;;4.53;;
7383;SDS011;3733;47.994;8.820;2023-07-02T05:20:21;6.87;;;4.53;;
7383;SDS011;3733;47.994;8.820;2023-07-02T05:22:47;7.27;;;5.03;;
7383;SDS011;3733;47.994;8.820;2023-07-02T05:25:13;8.03;;;5.30;;
7383;SDS011;3733;47.994;8.820;2023-07-02T05:27:38;6.57;;;5.20;;
7383;SDS011;3733;47.994;8.820;2023-07-02T05:30:04;7.13;;;5.60;;
7383;SDS011;3733;47.994;8.820;2023-07-02T05:32:30;9.80;;;5.43;;
7383;SDS011;3733;47.994;8.820;2023-07-02T05:34:56;8.53;;;5.30;;
7383;SDS011;3733;47.994;8.820;2023-07-02T05:37:21;12.30;;;5.93;;
7383;SDS011;3733;47.994;8.820;2023-07-02T05:39:48;5.93;;;4.83;;
7383;SDS011;3733;47.994;8.820;2023-07-02T05:42:13;15.23;;;5.17;;
7383;SDS011;3733;47.994;8.820;2023-07-02T05:44:39;8.97;;;5.07;;
7383;SDS011;3733;47.994;8.820;2023-07-02T05:47:04;13.20;;;6.50;;
7383;SDS011;3733;47.994;8.820;2023-07-02T05:49:30;11.03;;;5.80;;
7383;SDS011;3733;47.994;8.820;2023-07-02T05:51:56;12.93;;;6.60;;
7383;SDS011;3733;47.994;8.820;2023-07-02T05:54:21;11.27;;;7.03;;
7383;SDS011;3733;47.994;8.820;2023-07-02T05:56:47;12.07;;;6.53;;
7383;SDS011;3733;47.994;8.820;2023-07-02T05:59:12;9.33;;;6.83;;
7383;SDS011;3733;47.994;8.820;2023-07-02T06:01:42;13.63;;;6.77;;
7383;SDS011;3733;47.994;8.820;2023-07-02T06:04:08;18.30;;;7.43;;
7383;SDS011;3733;47.994;8.820;2023-07-02T06:06:34;12.50;;;6.60;;
7383;SDS011;3733;47.994;8.820;2023-07-02T06:08:59;15.53;;;8.00;;
7383;SDS011;3733;47.994;8.820;2023-07-02T06:11:25;13.10;;;7.53;;
7383;SDS011;3733;47.994;8.820;2023-07-02T06:13:50;12.83;;;7.70;;
7383;SDS011;3733;47.994;8.820;2023-07-02T06:16:16;11.77;;;7.33;;
7383;SDS011;3733;47.994;8.820;2023-07-02T06:18:42;11.23;;;7.10;;
7383;SDS011;3733;47.994;8.820;2023-07-02T06:21:07;13.03;;;8.63;;
7383;SDS011;3733;47.994;8.820;2023-07-02T06:23:39;12.00;;;7.50;;
7383;SDS011;3733;47.994;8.820;2023-07-02T06:26:06;14.27;;;7.10;;
7383;SDS011;3733;47.994;8.820;2023-07-02T06:28:32;12.23;;;7.23;;
7383;SDS011;3733;47.994;8.820;2023-07-02T06:30:58;17.10;;;8.53;;
7383;SDS011;3733;47.994;8.820;2023-07-02T06:33:23;16.13;;;8.43;;
7383;SDS011;3733;47.994;8.820;2023-07-02T06:35:49;18.10;;;9.73;;
7383;SDS011;3733;47.994;8.820;2023-07-02T06:38:15;21.57;;;9.87;;
7383;SDS011;3733;47.994;8.820;2023-07-02T06:40:40;15.70;;;9.60;;
7383;SDS011;3733;47.994;8.820;2023-07-02T06:43:06;15.73;;;10.20;;
7383;SDS011;3733;47.994;8.820;2023-07-02T06:45:31;16.83;;;10.47;;
7383;SDS011;3733;47.994;8.820;2023-07-02T06:47:57;22.63;;;11.47;;
7383;SDS011;3733;47.994;8.820;2023-07-02T06:50:22;25.83;;;11.43;;
7383;SDS011;3733;47.994;8.820;2023-07-02T06:52:48;19.17;;;10.50;;
7383;SDS011;3733;47.994;8.820;2023-07-02T06:55:14;24.60;;;13.07;;
7383;SDS011;3733;47.994;8.820;2023-07-02T06:57:43;30.63;;;15.00;;
7383;SDS011;3733;47.994;8.820;2023-07-02T07:00:12;28.37;;;14.57;;
7383;SDS011;3733;47.994;8.820;2023-07-02T07:02:38;31.23;;;15.43;;
7383;SDS011;3733;47.994;8.820;2023-07-02T07:05:04;30.07;;;16.40;;
7383;SDS011;3733;47.994;8.820;2023-07-02T07:07:30;37.57;;;14.63;;
7383;SDS011;3733;47.994;8.820;2023-07-02T07:09:57;30.27;;;16.20;;
7383;SDS011;3733;47.994;8.820;2023-07-02T07:12:22;30.20;;;15.10;;
7383;SDS011;3733;47.994;8.820;2023-07-02T07:14:48;31.80;;;16.33;;
7383;SDS011;3733;47.994;8.820;2023-07-02T07:17:13;35.60;;;16.90;;
7383;SDS011;3733;47.994;8.820;2023-07-02T07:19:39;34.23;;;17.00;;
7383;SDS011;3733;47.994;8.820;2023-07-02T07:22:04;28.93;;;16.40;;
7383;SDS011;3733;47.994;8.820;2023-07-02T07:24:30;31.43;;;17.00;;
7383;SDS011;3733;47.994;8.820;2023-07-02T07:26:56;32.40;;;16.60;;
7383;SDS011;3733;47.994;8.820;2023-07-02T07:29:21;37.13;;;16.80;;
7383;SDS011;3733;47.994;8.820;2023-07-02T07:31:47;28.40;;;17.43;;
7383;SDS011;3733;47.994;8.820;2023-07-02T07:34:13;37.13;;;17.17;;
7383;SDS011;3733;47.994;8.820;2023-07-02T07:36:38;30.50;;;16.80;;
7383;SDS011;3733;47.994;8.820;2023-07-02T07:39:04;34.47;;;17.20;;
7383;SDS011;3733;47.994;8.820;2023-07-02T07:41:29;44.33;;;18.40;;
7383;SDS011;3733;47.994;8.820;2023-07-02T07:43:55;32.17;;;16.70;;
7383;SDS011;3733;47.994;8.820;2023-07-02T07:46:21;34.53;;;18.63;;
7383;SDS011;3733;47.994;8.820;2023-07-02T07:48:46;31.63;;;17.60;;
7383;SDS011;3733;47.994;8.820;2023-07-02T07:51:12;36.50;;;17.83;;
7383;SDS011;3733;47.994;8.820;2023-07-02T07:53:37;38.60;;;18.53;;
7383;SDS011;3733;47.994;8.820;2023-07-02T07:56:04;32.33;;;18.60;;
7383;SDS011;3733;47.994;8.820;2023-07-02T07:58:30;34.27;;;18.27;;
7383;SDS011;3733;47.994;8.820;2023-07-02T08:00:57;36.00;;;18.57;;
7383;SDS011;3733;47.994;8.820;2023-07-02T08:03:23;37.83;;;18.17;;
7383;SDS011;3733;47.994;8.820;2023-07-02T08:05:48;31.70;;;17.17;;
7383;SDS011;3733;47.994;8.820;2023-07-02T08:08:14;42.03;;;19.53;;
7383;SDS011;3733;47.994;8.820;2023-07-02T08:10:40;32.70;;;18.60;;
7383;SDS011;3733;47.994;8.820;2023-07-02T08:13:05;37.90;;;20.10;;
7383;SDS011;3733;47.994;8.820;2023-07-02T08:15:32;39.13;;;18.87;;
7383;SDS011;3733;47.994;8.820;2023-07-02T08:17:58;39.80;;;20.70;;
7383;SDS011;3733;47.994;8.820;2023-07-02T08:20:24;35.33;;;19.70;;
7383;SDS011;3733;47.994;8.820;2023-07-02T08:22:50;41.47;;;20.80;;
7383;SDS011;3733;47.994;8.820;2023-07-02T08:25:16;35.67;;;19.60;;
7383;SDS011;3733;47.994;8.820;2023-07-02T08:27:43;43.73;;;19.90;;
7383;SDS011;3733;47.994;8.820;2023-07-02T08:30:09;40.23;;;19.87;;
7383;SDS011;3733;47.994;8.820;2023-07-02T08:32:35;43.47;;;20.70;;
7383;SDS011;3733;47.994;8.820;2023-07-02T08:35:01;36.70;;;20.70;;
7383;SDS011;3733;47.994;8.820;2023-07-02T08:37:26;40.03;;;20.67;;
7383;SDS011;3733;47.994;8.820;2023-07-02T08:39:52;43.33;;;21.40;;
7383;SDS011;3733;47.994;8.820;2023-07-02T08:42:18;39.43;;;19.97;;
7383;SDS011;3733;47.994;8.820;2023-07-02T08:44:46;38.20;;;21.17;;
7383;SDS011;3733;47.994;8.820;2023-07-02T08:47:12;38.60;;;20.03;;
7383;SDS011;3733;47.994;8.820;2023-07-02T08:49:38;35.57;;;20.30;;
7383;SDS011;3733;47.994;8.820;2023-07-02T08:52:04;38.67;;;20.80;;
7383;SDS011;3733;47.994;8.820;2023-07-02T08:54:30;39.93;;;20.33;;
7383;SDS011;3733;47.994;8.820;2023-07-02T08:56:56;39.37;;;21.10;;
7383;SDS011;3733;47.994;8.820;2023-07-02T08:59:22;31.87;;;19.33;;
7383;SDS011;3733;47.994;8.820;2023-07-02T09:01:48;48.10;;;20.63;;
7383;SDS011;3733;47.994;8.820;2023-07-02T09:04:33;33.67;;;19.70;;
7383;SDS011;3733;47.994;8.820;2023-07-02T09:07:03;43.37;;;20.37;;
7383;SDS011;3733;47.994;8.820;2023-07-02T09:09:29;40.00;;;19.90;;
7383;SDS011;3733;47.994;8.820;2023-07-02T09:11:55;36.40;;;19.80;;
7383;SDS011;3733;47.994;8.820;2023-07-02T09:14:27;38.70;;;22.03;;
7383;SDS011;3733;47.994;8.820;2023-07-02T09:17:07;40.77;;;20.63;;
7383;SDS011;3733;47.994;8.820;2023-07-02T09:19:34;38.60;;;19.90;;
7383;SDS011;3733;47.994;8.820;2023-07-02T09:22:00;39.93;;;20.53;;
7383;SDS011;3733;47.994;8.820;2023-07-02T09:24:27;38.60;;;20.77;;
7383;SDS011;3733;47.994;8.820;2023-07-02T09:26:56;35.63;;;20.43;;
7383;SDS011;3733;47.994;8.820;2023-07-02T09:29:29;36.30;;;21.43;;
7383;SDS011;3733;47.994;8.820;2023-07-02T09:32:00;35.47;;;19.37;;
7383;SDS011;3733;47.994;8.820;2023-07-02T09:34:28;35.47;;;19.83;;
7383;SDS011;3733;47.994;8.820;2023-07-02T09:36:54;37.30;;;21.33;;
7383;SDS011;3733;47.994;8.820;2023-07-02T09:39:20;37.13;;;20.50;;
7383;SDS011;3733;47.994;8.820;2023-07-02T09:41:50;37.90;;;20.57;;
7383;SDS011;3733;47.994;8.820;2023-07-02T09:44:16;41.07;;;20.07;;
7383;SDS011;3733;47.994;8.820;2023-07-02T09:46:45;37.37;;;20.50;;
7383;SDS011;3733;47.994;8.820;2023-07-02T09:49:18;35.40;;;21.50;;
7383;SDS011;3733;47.994;8.820;2023-07-02T09:51:47;34.43;;;19.20;;
7383;SDS011;3733;47.994;8.820;2023-07-02T09:54:13;37.53;;;20.63;;
7383;SDS011;3733;47.994;8.820;2023-07-02T09:56:39;34.50;;;19.20;;
7383;SDS011;3733;47.994;8.820;2023-07-02T09:59:05;36.70;;;20.13;;
7383;SDS011;3733;47.994;8.820;2023-07-02T10:01:31;37.00;;;19.23;;
7383;SDS011;3733;47.994;8.820;2023-07-02T10:03:56;33.93;;;20.23;;
7383;SDS011;3733;47.994;8.820;2023-07-02T10:06:22;32.93;;;19.70;;
7383;SDS011;3733;47.994;8.820;2023-07-02T10:08:54;34.70;;;18.60;;
7383;SDS011;3733;47.994;8.820;2023-07-02T10:11:20;36.53;;;19.40;;
7383;SDS011;3733;47.994;8.820;2023-07-02T10:13:58;34.23;;;18.47;;
7383;SDS011;3733;47.994;8.820;2023-07-02T10:16:24;35.90;;;18.43;;
7383;SDS011;3733;47.994;8.820;2023-07-02T10:18:52;32.07;;;18.87;;
7383;SDS011;3733;47.994;8.820;2023-07-02T10:21:18;32.70;;;19.10;;
7383;SDS011;3733;47.994;8.820;2023-07-02T10:23:45;39.67;;;20.10;;
7383;SDS011;3733;47.994;8.820;2023-07-02T10:26:13;31.27;;;16.90;;
7383;SDS011;3733;47.994;8.820;2023-07-02T10:28:40;32.40;;;17.77;;
7383;SDS011;3733;47.994;8.820;2023-07-02T10:31:16;29.20;;;17.10;;
7383;SDS011;3733;47.994;8.820;2023-07-02T10:33:43;33.73;;;17.63;;
7383;SDS011;3733;47.994;8.820;2023-07-02T10:36:16;32.67;;;18.80;;
7383;SDS011;3733;47.994;8.820;2023-07-02T10:38:47;32.97;;;16.70;;
7383;SDS011;3733;47.994;8.820;2023-07-02T10:41:22;29.03;;;16.73;;
7383;SDS011;3733;47.994;8.820;2023-07-02T10:43:49;30.30;;;17.17;;
7383;SDS011;3733;47.994;8.820;2023-07-02T10:46:18;28.73;;;16.87;;
7383;SDS011;3733;47.994;8.820;2023-07-02T10:48:54;29.13;;;15.87;;
7383;SDS011;3733;47.994;8.820;2023-07-02T10:51:20;30.10;;;16.77;;
7383;SDS011;3733;47.994;8.820;2023-07-02T10:53:55;26.90;;;15.27;;
7383;SDS011;3733;47.994;8.820;2023-07-02T10:56:25;27.57;;;15.67;;
7383;SDS011;3733;47.994;8.820;2023-07-02T10:58:52;29.90;;;16.20;;
7383;SDS011;3733;47.994;8.820;2023-07-02T11:01:25;27.37;;;16.40;;
7383;SDS011;3733;47.994;8.820;2023-07-02T11:03:55;24.67;;;15.33;;
7383;SDS011;3733;47.994;8.820;2023-07-02T11:06:25;25.00;;;14.70;;
7383;SDS011;3733;47.994;8.820;2023-07-02T11:08:52;24.20;;;14.63;;
7383;SDS011;3733;47.994;8.820;2023-07-02T11:11:19;25.67;;;13.80;;
7383;SDS011;3733;47.994;8.820;2023-07-02T11:13:46;26.00;;;15.03;;
7383;SDS011;3733;47.994;8.820;2023-07-02T11:18:52;26.53;;;15.43;;
7383;SDS011;3733;47.994;8.820;2023-07-02T11:21:18;29.20;;;15.10;;
7383;SDS011;3733;47.994;8.820;2023-07-02T11:23:44;25.50;;;14.57;;
7383;SDS011;3733;47.994;8.820;2023-07-02T11:26:09;28.00;;;15.17;;
7383;SDS011;3733;47.994;8.820;2023-07-02T11:28:35;25.50;;;14.80;;
7383;SDS011;3733;47.994;8.820;2023-07-02T11:31:01;25.30;;;14.40;;
7383;SDS011;3733;47.994;8.820;2023-07-02T11:33:38;30.80;;;14.53;;
7383;SDS011;3733;47.994;8.820;2023-07-02T11:36:05;22.63;;;14.17;;
7383;SDS011;3733;47.994;8.820;2023-07-02T11:38:36;23.80;;;13.73;;
7383;SDS011;3733;47.994;8.820;2023-07-02T11:41:02;25.30;;;13.30;;
7383;SDS011;3733;47.994;8.820;2023-07-02T11:43:28;23.43;;;12.53;;
7383;SDS011;3733;47.994;8.820;2023-07-02T11:45:54;23.00;;;11.40;;
7383;SDS011;3733;47.994;8.820;2023-07-02T11:48:20;21.13;;;12.70;;
7383;SDS011;3733;47.994;8.820;2023-07-02T11:50:45;18.90;;;11.73;;
7383;SDS011;3733;47.994;8.820;2023-07-02T11:53:11;20.17;;;11.13;;
7383;SDS011;3733;47.994;8.820;2023-07-02T11:55:36;23.53;;;12.53;;
7383;SDS011;3733;47.994;8.820;2023-07-02T11:58:02;18.23;;;11.30;;
7383;SDS011;3733;47.994;8.820;2023-07-02T12:00:28;16.87;;;11.40;;
7383;SDS011;3733;47.994;8.820;2023-07-02T12:02:53;18.80;;;10.20;;
7383;SDS011;3733;47.994;8.820;2023-07-02T12:05:19;18.60;;;10.87;;
7383;SDS011;3733;47.994;8.820;2023-07-02T12:07:44;17.70;;;10.20;;
7383;SDS011;3733;47.994;8.820;2023-07-02T12:10:10;18.03;;;9.63;;
7383;SDS011;3733;47.994;8.820;2023-07-02T12:12:36;16.27;;;10.07;;
7383;SDS011;3733;47.994;8.820;2023-07-02T12:15:02;16.57;;;9.17;;
7383;SDS011;3733;47.994;8.820;2023-07-02T12:17:27;15.57;;;8.73;;
7383;SDS011;3733;47.994;8.820;2023-07-02T12:19:53;14.90;;;9.07;;
7383;SDS011;3733;47.994;8.820;2023-07-02T12:22:19;15.47;;;9.17;;
7383;SDS011;3733;47.994;8.820;2023-07-02T12:24:46;13.87;;;8.40;;
7383;SDS011;3733;47.994;8.820;2023-07-02T12:27:13;15.67;;;9.40;;
7383;SDS011;3733;47.994;8.820;2023-07-02T12:29:39;19.53;;;9.40;;
7383;SDS011;3733;47.994;8.820;2023-07-02T12:32:05;15.67;;;9.23;;
7383;SDS011;3733;47.994;8.820;2023-07-02T12:34:31;17.63;;;9.70;;
7383;SDS011;3733;47.994;8.820;2023-07-02T12:36:57;15.90;;;9.07;;
7383;SDS011;3733;47.994;8.820;2023-07-02T12:39:22;15.87;;;8.67;;
7383;SDS011;3733;47.994;8.820;2023-07-02T12:41:48;14.27;;;8.47;;
7383;SDS011;3733;47.994;8.820;2023-07-02T12:44:13;13.23;;;8.50;;
7383;SDS011;3733;47.994;8.820;2023-07-02T12:46:39;13.33;;;8.27;;
7383;SDS011;3733;47.994;8.820;2023-07-02T12:49:05;14.30;;;9.00;;
7383;SDS011;3733;47.994;8.820;2023-07-02T12:51:30;13.60;;;7.90;;
7383;SDS011;3733;47.994;8.820;2023-07-02T12:53:56;13.60;;;7.40;;
7383;SDS011;3733;47.994;8.820;2023-07-02T12:56:21;13.70;;;7.50;;
7383;SDS011;3733;47.994;8.820;2023-07-02T12:58:47;11.83;;;7.60;;
7383;SDS011;3733;47.994;8.820;2023-07-02T13:01:12;11.80;;;7.53;;
7383;SDS011;3733;47.994;8.820;2023-07-02T13:03:38;12.03;;;7.43;;
7383;SDS011;3733;47.994;8.820;2023-07-02T13:06:10;11.97;;;7.47;;
7383;SDS011;3733;47.994;8.820;2023-07-02T13:08:35;15.03;;;8.30;;
7383;SDS011;3733;47.994;8.820;2023-07-02T13:11:01;9.90;;;6.80;;
7383;SDS011;3733;47.994;8.820;2023-07-02T13:13:26;13.87;;;8.00;;
7383;SDS011;3733;47.994;8.820;2023-07-02T13:15:52;17.30;;;7.47;;
7383;SDS011;3733;47.994;8.820;2023-07-02T13:18:18;12.67;;;8.40;;
7383;SDS011;3733;47.994;8.820;2023-07-02T13:20:43;13.27;;;8.20;;
7383;SDS011;3733;47.994;8.820;2023-07-02T13:23:09;16.70;;;7.83;;
7383;SDS011;3733;47.994;8.820;2023-07-02T13:25:34;14.20;;;7.70;;
7383;SDS011;3733;47.994;8.820;2023-07-02T13:28:00;12.10;;;7.70;;
7383;SDS011;3733;47.994;8.820;2023-07-02T13:30:26;11.23;;;7.53;;
7383;SDS011;3733;47.994;8.820;2023-07-02T13:32:53;15.33;;;7.00;;
7383;SDS011;3733;47.994;8.820;2023-07-02T13:35:19;10.97;;;7.30;;
7383;SDS011;3733;47.994;8.820;2023-07-02T13:37:45;13.10;;;7.57;;
7383;SDS011;3733;47.994;8.820;2023-07-02T13:40:11;12.40;;;7.80;;
7383;SDS011;3733;47.994;8.820;2023-07-02T13:42:37;11.80;;;7.50;;
7383;SDS011;3733;47.994;8.820;2023-07-02T13:45:03;10.93;;;6.73;;
7383;SDS011;3733;47.994;8.820;2023-07-02T13:47:29;14.40;;;7.87;;
7383;SDS011;3733;47.994;8.820;2023-07-02T13:49:55;14.03;;;7.40;;
7383;SDS011;3733;47.994;8.820;2023-07-02T13:52:20;11.23;;;6.80;;
7383;SDS011;3733;47.994;8.820;2023-07-02T13:54:46;10.80;;;6.33;;
7383;SDS011;3733;47.994;8.820;2023-07-02T13:57:11;11.80;;;7.47;;
7383;SDS011;3733;47.994;8.820;2023-07-02T13:59:37;11.27;;;6.70;;
7383;SDS011;3733;47.994;8.820;2023-07-02T14:02:03;11.67;;;7.77;;
7383;SDS011;3733;47.994;8.820;2023-07-02T14:04:28;13.63;;;7.87;;
7383;SDS011;3733;47.994;8.820;2023-07-02T14:06:54;11.90;;;7.70;;
7383;SDS011;3733;47.994;8.820;2023-07-02T14:09:19;13.53;;;8.60;;
7383;SDS011;3733;47.994;8.820;2023-07-02T14:11:45;14.60;;;8.70;;
7383;SDS011;3733;47.994;8.820;2023-07-02T14:14:11;15.70;;;7.83;;
7383;SDS011;3733;47.994;8.820;2023-07-02T14:16:37;13.67;;;8.13;;
7383;SDS011;3733;47.994;8.820;2023-07-02T14:19:02;14.03;;;8.07;;
7383;SDS011;3733;47.994;8.820;2023-07-02T14:21:28;14.77;;;8.50;;
7383;SDS011;3733;47.994;8.820;2023-07-02T14:23:53;13.53;;;8.00;;
7383;SDS011;3733;47.994;8.820;2023-07-02T14:26:19;13.00;;;7.87;;
7383;SDS011;3733;47.994;8.820;2023-07-02T14:28:45;14.17;;;9.00;;
7383;SDS011;3733;47.994;8.820;2023-07-02T14:31:10;12.23;;;8.10;;
7383;SDS011;3733;47.994;8.820;2023-07-02T14:33:36;12.90;;;8.27;;
7383;SDS011;3733;47.994;8.820;2023-07-02T14:36:03;12.13;;;8.30;;
7383;SDS011;3733;47.994;8.820;2023-07-02T14:38:30;14.20;;;8.53;;
7383;SDS011;3733;47.994;8.820;2023-07-02T14:40:56;12.23;;;8.80;;
7383;SDS011;3733;47.994;8.820;2023-07-02T14:43:23;12.60;;;8.33;;
7383;SDS011;3733;47.994;8.820;2023-07-02T14:45:53;16.83;;;8.80;;
7383;SDS011;3733;47.994;8.820;2023-07-02T14:48:20;14.00;;;8.40;;
7383;SDS011;3733;47.994;8.820;2023-07-02T14:50:50;11.50;;;7.80;;
7383;SDS011;3733;47.994;8.820;2023-07-02T14:53:17;15.37;;;8.83;;
7383;SDS011;3733;47.994;8.820;2023-07-02T14:55:43;14.23;;;8.17;;
7383;SDS011;3733;47.994;8.820;2023-07-02T14:58:10;17.80;;;10.10;;
7383;SDS011;3733;47.994;8.820;2023-07-02T15:00:42;13.17;;;9.33;;